sensor_id;sensor_type;location;lat;lon;timestamp;P1;durP1;ratioP1;P2;durP2;ratioP2
22660;SDS011;11497;52.222;21.246;2024-03-08T00:00:13;227.15;;;98.45;;
22660;SDS011;11497;52.222;21.246;2024-03-08T00:03:05;220.65;;;99.88;;
22660;SDS011;11497;52.222;21.246;2024-03-08T00:05:33;236.55;;;99.45;;
22660;SDS011;11497;52.222;21.246;2024-03-08T00:08:01;229.30;;;99.72;;
22660;SDS011;11497;52.222;21.246;2024-03-08T00:10:29;287.30;;;118.00;;
22660;SDS011;11497;52.222;21.246;2024-03-08T00:12:57;265.52;;;111.97;;
22660;SDS011;11497;52.222;21.246;2024-03-08T00:15:25;268.40;;;114.32;;
22660;SDS011;11497;52.222;21.246;2024-03-08T00:17:53;261.00;;;111.90;;
22660;SDS011;11497;52.222;21.246;2024-03-08T00:20:21;275.02;;;118.35;;
22660;SDS011;11497;52.222;21.246;2024-03-08T00:22:50;280.40;;;118.47;;
22660;SDS011;11497;52.222;21.246;2024-03-08T00:25:18;296.40;;;124.50;;
22660;SDS011;11497;52.222;21.246;2024-03-08T00:27:46;293.23;;;122.55;;
22660;SDS011;11497;52.222;21.246;2024-03-08T00:30:16;299.92;;;127.35;;
22660;SDS011;11497;52.222;21.246;2024-03-08T00:32:44;282.05;;;121.88;;
22660;SDS011;11497;52.222;21.246;2024-03-08T00:35:12;320.33;;;133.90;;
22660;SDS011;11497;52.222;21.246;2024-03-08T00:37:40;303.50;;;127.05;;
22660;SDS011;11497;52.222;21.246;2024-03-08T00:40:09;276.35;;;116.85;;
22660;SDS011;11497;52.222;21.246;2024-03-08T00:42:39;285.73;;;120.20;;
22660;SDS011;11497;52.222;21.246;2024-03-08T00:45:08;267.35;;;116.80;;
22660;SDS011;11497;52.222;21.246;2024-03-08T00:47:37;263.77;;;111.03;;
22660;SDS011;11497;52.222;21.246;2024-03-08T00:50:06;254.50;;;111.03;;
22660;SDS011;11497;52.222;21.246;2024-03-08T00:52:36;245.75;;;108.47;;
22660;SDS011;11497;52.222;21.246;2024-03-08T00:55:04;244.73;;;109.78;;
22660;SDS011;11497;52.222;21.246;2024-03-08T00:57:32;235.48;;;105.95;;
22660;SDS011;11497;52.222;21.246;2024-03-08T01:00:02;236.27;;;105.30;;
22660;SDS011;11497;52.222;21.246;2024-03-08T01:02:35;234.15;;;103.53;;
22660;SDS011;11497;52.222;21.246;2024-03-08T01:05:03;244.55;;;105.80;;
22660;SDS011;11497;52.222;21.246;2024-03-08T01:07:34;256.88;;;112.78;;
22660;SDS011;11497;52.222;21.246;2024-03-08T01:10:03;258.60;;;113.25;;
22660;SDS011;11497;52.222;21.246;2024-03-08T01:12:36;308.67;;;130.70;;
22660;SDS011;11497;52.222;21.246;2024-03-08T01:15:05;259.92;;;110.95;;
22660;SDS011;11497;52.222;21.246;2024-03-08T01:17:33;289.08;;;124.45;;
22660;SDS011;11497;52.222;21.246;2024-03-08T01:20:01;275.00;;;118.53;;
22660;SDS011;11497;52.222;21.246;2024-03-08T01:22:30;276.23;;;119.63;;
22660;SDS011;11497;52.222;21.246;2024-03-08T01:24:58;284.02;;;121.47;;
22660;SDS011;11497;52.222;21.246;2024-03-08T01:27:26;288.30;;;122.20;;
22660;SDS011;11497;52.222;21.246;2024-03-08T01:29:54;274.33;;;120.03;;
22660;SDS011;11497;52.222;21.246;2024-03-08T01:32:22;283.23;;;122.25;;
22660;SDS011;11497;52.222;21.246;2024-03-08T01:34:50;315.83;;;135.65;;
22660;SDS011;11497;52.222;21.246;2024-03-08T01:37:18;297.73;;;130.68;;
22660;SDS011;11497;52.222;21.246;2024-03-08T01:39:46;282.73;;;124.10;;
22660;SDS011;11497;52.222;21.246;2024-03-08T01:42:14;269.40;;;118.13;;
22660;SDS011;11497;52.222;21.246;2024-03-08T01:44:45;235.32;;;106.13;;
22660;SDS011;11497;52.222;21.246;2024-03-08T01:47:12;229.60;;;102.05;;
22660;SDS011;11497;52.222;21.246;2024-03-08T01:49:40;246.80;;;105.95;;
22660;SDS011;11497;52.222;21.246;2024-03-08T01:52:09;229.55;;;102.72;;
22660;SDS011;11497;52.222;21.246;2024-03-08T01:54:38;223.45;;;99.35;;
22660;SDS011;11497;52.222;21.246;2024-03-08T01:57:07;231.75;;;102.07;;
22660;SDS011;11497;52.222;21.246;2024-03-08T01:59:36;235.52;;;99.38;;
22660;SDS011;11497;52.222;21.246;2024-03-08T02:02:04;214.20;;;97.80;;
22660;SDS011;11497;52.222;21.246;2024-03-08T02:04:35;214.73;;;96.32;;
22660;SDS011;11497;52.222;21.246;2024-03-08T02:07:05;204.23;;;92.72;;
22660;SDS011;11497;52.222;21.246;2024-03-08T02:09:37;203.07;;;93.78;;
22660;SDS011;11497;52.222;21.246;2024-03-08T02:12:06;186.30;;;88.18;;
22660;SDS011;11497;52.222;21.246;2024-03-08T02:14:37;184.63;;;87.97;;
22660;SDS011;11497;52.222;21.246;2024-03-08T02:17:07;200.02;;;89.32;;
22660;SDS011;11497;52.222;21.246;2024-03-08T02:19:34;197.40;;;88.55;;
22660;SDS011;11497;52.222;21.246;2024-03-08T02:22:03;188.73;;;85.45;;
22660;SDS011;11497;52.222;21.246;2024-03-08T02:24:32;165.50;;;77.65;;
22660;SDS011;11497;52.222;21.246;2024-03-08T02:27:00;163.82;;;77.68;;
22660;SDS011;11497;52.222;21.246;2024-03-08T02:29:28;164.23;;;76.38;;
22660;SDS011;11497;52.222;21.246;2024-03-08T02:31:57;179.60;;;81.10;;
22660;SDS011;11497;52.222;21.246;2024-03-08T02:34:25;186.43;;;84.82;;
22660;SDS011;11497;52.222;21.246;2024-03-08T02:36:53;178.43;;;83.57;;
22660;SDS011;11497;52.222;21.246;2024-03-08T02:39:23;191.00;;;85.30;;
22660;SDS011;11497;52.222;21.246;2024-03-08T02:41:51;181.50;;;82.78;;
22660;SDS011;11497;52.222;21.246;2024-03-08T02:44:19;180.02;;;81.00;;
22660;SDS011;11497;52.222;21.246;2024-03-08T02:46:48;171.90;;;79.35;;
22660;SDS011;11497;52.222;21.246;2024-03-08T02:49:17;180.20;;;81.65;;
22660;SDS011;11497;52.222;21.246;2024-03-08T02:51:45;179.57;;;81.60;;
22660;SDS011;11497;52.222;21.246;2024-03-08T02:54:13;177.55;;;80.43;;
22660;SDS011;11497;52.222;21.246;2024-03-08T02:56:41;178.77;;;81.07;;
22660;SDS011;11497;52.222;21.246;2024-03-08T02:59:09;174.30;;;80.30;;
22660;SDS011;11497;52.222;21.246;2024-03-08T03:01:37;183.88;;;82.22;;
22660;SDS011;11497;52.222;21.246;2024-03-08T03:04:05;192.30;;;84.45;;
22660;SDS011;11497;52.222;21.246;2024-03-08T03:06:33;207.05;;;91.53;;
22660;SDS011;11497;52.222;21.246;2024-03-08T03:09:01;219.13;;;95.68;;
22660;SDS011;11497;52.222;21.246;2024-03-08T03:11:33;232.18;;;99.93;;
22660;SDS011;11497;52.222;21.246;2024-03-08T03:14:01;224.13;;;99.85;;
22660;SDS011;11497;52.222;21.246;2024-03-08T03:16:28;233.73;;;99.43;;
22660;SDS011;11497;52.222;21.246;2024-03-08T03:18:56;235.70;;;102.30;;
22660;SDS011;11497;52.222;21.246;2024-03-08T03:21:27;247.00;;;101.10;;
22660;SDS011;11497;52.222;21.246;2024-03-08T03:23:58;238.13;;;102.60;;
22660;SDS011;11497;52.222;21.246;2024-03-08T03:26:26;253.68;;;108.10;;
22660;SDS011;11497;52.222;21.246;2024-03-08T03:28:54;252.20;;;109.75;;
22660;SDS011;11497;52.222;21.246;2024-03-08T03:31:23;249.02;;;106.53;;
22660;SDS011;11497;52.222;21.246;2024-03-08T03:33:52;239.52;;;105.07;;
22660;SDS011;11497;52.222;21.246;2024-03-08T03:36:20;235.65;;;101.05;;
22660;SDS011;11497;52.222;21.246;2024-03-08T03:38:48;255.45;;;107.28;;
22660;SDS011;11497;52.222;21.246;2024-03-08T03:41:16;239.60;;;103.28;;
22660;SDS011;11497;52.222;21.246;2024-03-08T03:43:44;236.05;;;101.93;;
22660;SDS011;11497;52.222;21.246;2024-03-08T03:46:12;239.43;;;102.32;;
22660;SDS011;11497;52.222;21.246;2024-03-08T03:48:40;243.60;;;101.38;;
22660;SDS011;11497;52.222;21.246;2024-03-08T03:51:09;231.23;;;100.85;;
22660;SDS011;11497;52.222;21.246;2024-03-08T03:53:37;232.85;;;100.75;;
22660;SDS011;11497;52.222;21.246;2024-03-08T03:56:05;219.52;;;98.28;;
22660;SDS011;11497;52.222;21.246;2024-03-08T03:58:34;227.45;;;95.82;;
22660;SDS011;11497;52.222;21.246;2024-03-08T04:01:04;219.90;;;96.95;;
22660;SDS011;11497;52.222;21.246;2024-03-08T04:03:35;236.82;;;100.75;;
22660;SDS011;11497;52.222;21.246;2024-03-08T04:06:04;241.88;;;99.55;;
22660;SDS011;11497;52.222;21.246;2024-03-08T04:08:32;234.43;;;101.95;;
22660;SDS011;11497;52.222;21.246;2024-03-08T04:11:01;232.48;;;102.57;;
22660;SDS011;11497;52.222;21.246;2024-03-08T04:13:29;237.82;;;102.63;;
22660;SDS011;11497;52.222;21.246;2024-03-08T04:15:57;230.90;;;101.32;;
22660;SDS011;11497;52.222;21.246;2024-03-08T04:18:25;246.98;;;104.38;;
22660;SDS011;11497;52.222;21.246;2024-03-08T04:20:54;236.90;;;101.97;;
22660;SDS011;11497;52.222;21.246;2024-03-08T04:23:22;234.77;;;102.57;;
22660;SDS011;11497;52.222;21.246;2024-03-08T04:25:51;232.52;;;99.85;;
22660;SDS011;11497;52.222;21.246;2024-03-08T04:28:19;228.48;;;100.10;;
22660;SDS011;11497;52.222;21.246;2024-03-08T04:30:46;230.15;;;98.28;;
22660;SDS011;11497;52.222;21.246;2024-03-08T04:33:14;224.18;;;97.18;;
22660;SDS011;11497;52.222;21.246;2024-03-08T04:35:45;224.70;;;97.03;;
22660;SDS011;11497;52.222;21.246;2024-03-08T04:38:13;212.52;;;92.38;;
22660;SDS011;11497;52.222;21.246;2024-03-08T04:40:42;202.40;;;90.75;;
22660;SDS011;11497;52.222;21.246;2024-03-08T04:43:10;212.82;;;92.28;;
22660;SDS011;11497;52.222;21.246;2024-03-08T04:45:38;216.50;;;91.15;;
22660;SDS011;11497;52.222;21.246;2024-03-08T04:48:09;192.60;;;85.93;;
22660;SDS011;11497;52.222;21.246;2024-03-08T04:50:38;192.45;;;83.97;;
22660;SDS011;11497;52.222;21.246;2024-03-08T04:53:07;225.90;;;97.22;;
22660;SDS011;11497;52.222;21.246;2024-03-08T04:55:35;215.70;;;95.38;;
22660;SDS011;11497;52.222;21.246;2024-03-08T04:58:04;217.93;;;99.00;;
22660;SDS011;11497;52.222;21.246;2024-03-08T05:00:35;227.15;;;100.82;;
22660;SDS011;11497;52.222;21.246;2024-03-08T05:03:03;218.95;;;97.13;;
22660;SDS011;11497;52.222;21.246;2024-03-08T05:05:31;223.98;;;94.90;;
22660;SDS011;11497;52.222;21.246;2024-03-08T05:08:00;214.50;;;91.95;;
22660;SDS011;11497;52.222;21.246;2024-03-08T05:10:28;219.48;;;93.18;;
22660;SDS011;11497;52.222;21.246;2024-03-08T05:12:56;213.38;;;93.75;;
22660;SDS011;11497;52.222;21.246;2024-03-08T05:15:24;207.52;;;90.38;;
22660;SDS011;11497;52.222;21.246;2024-03-08T05:17:52;210.55;;;89.00;;
22660;SDS011;11497;52.222;21.246;2024-03-08T05:20:20;186.90;;;85.63;;
22660;SDS011;11497;52.222;21.246;2024-03-08T05:22:49;195.43;;;87.80;;
22660;SDS011;11497;52.222;21.246;2024-03-08T05:25:17;203.40;;;88.00;;
22660;SDS011;11497;52.222;21.246;2024-03-08T05:27:45;262.25;;;107.05;;
22660;SDS011;11497;52.222;21.246;2024-03-08T05:30:14;237.15;;;99.60;;
22660;SDS011;11497;52.222;21.246;2024-03-08T05:32:42;229.27;;;97.75;;
22660;SDS011;11497;52.222;21.246;2024-03-08T05:35:13;220.40;;;95.25;;
22660;SDS011;11497;52.222;21.246;2024-03-08T05:37:43;218.18;;;91.35;;
22660;SDS011;11497;52.222;21.246;2024-03-08T05:40:11;182.68;;;80.75;;
22660;SDS011;11497;52.222;21.246;2024-03-08T05:42:44;172.55;;;77.45;;
22660;SDS011;11497;52.222;21.246;2024-03-08T05:45:13;162.20;;;76.28;;
22660;SDS011;11497;52.222;21.246;2024-03-08T05:47:42;174.18;;;81.00;;
22660;SDS011;11497;52.222;21.246;2024-03-08T05:50:10;173.30;;;80.10;;
22660;SDS011;11497;52.222;21.246;2024-03-08T05:52:38;187.25;;;84.45;;
22660;SDS011;11497;52.222;21.246;2024-03-08T05:55:06;185.63;;;87.18;;
22660;SDS011;11497;52.222;21.246;2024-03-08T05:57:37;181.85;;;85.80;;
22660;SDS011;11497;52.222;21.246;2024-03-08T06:00:06;167.05;;;80.38;;
22660;SDS011;11497;52.222;21.246;2024-03-08T06:02:40;181.27;;;82.28;;
22660;SDS011;11497;52.222;21.246;2024-03-08T06:05:09;167.25;;;79.60;;
22660;SDS011;11497;52.222;21.246;2024-03-08T06:07:38;175.80;;;79.97;;
22660;SDS011;11497;52.222;21.246;2024-03-08T06:10:08;170.93;;;82.32;;
22660;SDS011;11497;52.222;21.246;2024-03-08T06:12:44;160.68;;;76.18;;
22660;SDS011;11497;52.222;21.246;2024-03-08T06:15:12;174.32;;;79.95;;
22660;SDS011;11497;52.222;21.246;2024-03-08T06:17:43;175.15;;;84.05;;
22660;SDS011;11497;52.222;21.246;2024-03-08T06:20:11;179.02;;;88.72;;
22660;SDS011;11497;52.222;21.246;2024-03-08T06:22:41;177.65;;;86.82;;
22660;SDS011;11497;52.222;21.246;2024-03-08T06:25:09;176.50;;;87.75;;
22660;SDS011;11497;52.222;21.246;2024-03-08T06:27:43;169.15;;;84.18;;
22660;SDS011;11497;52.222;21.246;2024-03-08T06:30:13;162.60;;;81.47;;
22660;SDS011;11497;52.222;21.246;2024-03-08T06:32:43;145.60;;;74.78;;
22660;SDS011;11497;52.222;21.246;2024-03-08T06:35:11;144.95;;;72.68;;
22660;SDS011;11497;52.222;21.246;2024-03-08T06:37:39;145.30;;;72.05;;
22660;SDS011;11497;52.222;21.246;2024-03-08T06:40:09;134.60;;;69.55;;
22660;SDS011;11497;52.222;21.246;2024-03-08T06:42:41;148.82;;;71.40;;
22660;SDS011;11497;52.222;21.246;2024-03-08T06:45:09;140.15;;;70.65;;
22660;SDS011;11497;52.222;21.246;2024-03-08T06:47:39;135.13;;;73.72;;
22660;SDS011;11497;52.222;21.246;2024-03-08T06:50:08;144.30;;;73.57;;
22660;SDS011;11497;52.222;21.246;2024-03-08T06:52:36;138.07;;;74.28;;
22660;SDS011;11497;52.222;21.246;2024-03-08T06:55:05;144.30;;;75.10;;
22660;SDS011;11497;52.222;21.246;2024-03-08T06:57:34;154.02;;;74.90;;
22660;SDS011;11497;52.222;21.246;2024-03-08T07:00:02;147.45;;;78.20;;
22660;SDS011;11497;52.222;21.246;2024-03-08T07:02:30;135.27;;;76.18;;
22660;SDS011;11497;52.222;21.246;2024-03-08T07:04:59;141.10;;;78.93;;
22660;SDS011;11497;52.222;21.246;2024-03-08T07:07:28;145.65;;;79.15;;
22660;SDS011;11497;52.222;21.246;2024-03-08T07:09:57;155.27;;;84.80;;
22660;SDS011;11497;52.222;21.246;2024-03-08T07:12:25;155.90;;;84.40;;
22660;SDS011;11497;52.222;21.246;2024-03-08T07:14:53;153.55;;;85.25;;
22660;SDS011;11497;52.222;21.246;2024-03-08T07:17:21;162.68;;;82.85;;
22660;SDS011;11497;52.222;21.246;2024-03-08T07:19:51;153.15;;;78.13;;
22660;SDS011;11497;52.222;21.246;2024-03-08T07:22:21;152.00;;;78.80;;
22660;SDS011;11497;52.222;21.246;2024-03-08T07:24:50;143.45;;;74.22;;
22660;SDS011;11497;52.222;21.246;2024-03-08T07:27:48;146.02;;;74.72;;
22660;SDS011;11497;52.222;21.246;2024-03-08T07:30:24;151.68;;;79.43;;
22660;SDS011;11497;52.222;21.246;2024-03-08T07:33:09;145.38;;;74.97;;
22660;SDS011;11497;52.222;21.246;2024-03-08T07:35:41;123.00;;;64.00;;
22660;SDS011;11497;52.222;21.246;2024-03-08T07:38:11;117.18;;;61.10;;
22660;SDS011;11497;52.222;21.246;2024-03-08T07:40:39;108.55;;;56.35;;
22660;SDS011;11497;52.222;21.246;2024-03-08T07:43:12;127.10;;;62.10;;
22660;SDS011;11497;52.222;21.246;2024-03-08T07:45:40;109.60;;;57.80;;
22660;SDS011;11497;52.222;21.246;2024-03-08T07:48:08;103.38;;;54.40;;
22660;SDS011;11497;52.222;21.246;2024-03-08T07:50:37;105.45;;;53.85;;
22660;SDS011;11497;52.222;21.246;2024-03-08T07:53:07;96.72;;;51.65;;
22660;SDS011;11497;52.222;21.246;2024-03-08T07:55:36;95.18;;;49.45;;
22660;SDS011;11497;52.222;21.246;2024-03-08T07:58:04;90.00;;;48.47;;
22660;SDS011;11497;52.222;21.246;2024-03-08T08:00:33;79.65;;;43.20;;
22660;SDS011;11497;52.222;21.246;2024-03-08T08:03:03;72.70;;;40.60;;
22660;SDS011;11497;52.222;21.246;2024-03-08T08:05:31;72.15;;;40.00;;
22660;SDS011;11497;52.222;21.246;2024-03-08T08:08:02;67.05;;;38.50;;
22660;SDS011;11497;52.222;21.246;2024-03-08T08:10:33;72.82;;;40.05;;
22660;SDS011;11497;52.222;21.246;2024-03-08T08:13:01;67.95;;;39.58;;
22660;SDS011;11497;52.222;21.246;2024-03-08T08:15:31;66.28;;;39.53;;
22660;SDS011;11497;52.222;21.246;2024-03-08T08:18:02;70.15;;;39.72;;
22660;SDS011;11497;52.222;21.246;2024-03-08T08:20:33;65.85;;;40.15;;
22660;SDS011;11497;52.222;21.246;2024-03-08T08:23:01;67.30;;;39.35;;
22660;SDS011;11497;52.222;21.246;2024-03-08T08:25:30;57.20;;;35.38;;
22660;SDS011;11497;52.222;21.246;2024-03-08T08:27:58;58.80;;;33.95;;
22660;SDS011;11497;52.222;21.246;2024-03-08T08:30:26;48.53;;;31.30;;
22660;SDS011;11497;52.222;21.246;2024-03-08T08:32:54;52.33;;;32.70;;
22660;SDS011;11497;52.222;21.246;2024-03-08T08:35:25;50.80;;;31.65;;
22660;SDS011;11497;52.222;21.246;2024-03-08T08:37:53;44.42;;;28.40;;
22660;SDS011;11497;52.222;21.246;2024-03-08T08:40:20;36.58;;;22.42;;
22660;SDS011;11497;52.222;21.246;2024-03-08T08:42:49;42.65;;;26.40;;
22660;SDS011;11497;52.222;21.246;2024-03-08T08:45:17;47.83;;;27.88;;
22660;SDS011;11497;52.222;21.246;2024-03-08T08:47:51;43.17;;;27.98;;
22660;SDS011;11497;52.222;21.246;2024-03-08T08:50:21;37.33;;;25.00;;
22660;SDS011;11497;52.222;21.246;2024-03-08T08:52:51;43.78;;;25.00;;
22660;SDS011;11497;52.222;21.246;2024-03-08T08:55:20;41.17;;;25.08;;
22660;SDS011;11497;52.222;21.246;2024-03-08T08:57:53;43.65;;;26.75;;
22660;SDS011;11497;52.222;21.246;2024-03-08T09:00:21;38.13;;;23.80;;
22660;SDS011;11497;52.222;21.246;2024-03-08T09:02:54;39.35;;;25.30;;
22660;SDS011;11497;52.222;21.246;2024-03-08T09:05:25;38.33;;;23.25;;
22660;SDS011;11497;52.222;21.246;2024-03-08T09:07:53;34.25;;;23.52;;
22660;SDS011;11497;52.222;21.246;2024-03-08T09:10:22;35.00;;;22.58;;
22660;SDS011;11497;52.222;21.246;2024-03-08T09:12:57;30.55;;;20.63;;
22660;SDS011;11497;52.222;21.246;2024-03-08T09:15:26;31.80;;;20.42;;
22660;SDS011;11497;52.222;21.246;2024-03-08T09:17:56;33.17;;;20.73;;
22660;SDS011;11497;52.222;21.246;2024-03-08T09:20:25;31.02;;;20.08;;
22660;SDS011;11497;52.222;21.246;2024-03-08T09:22:54;28.27;;;19.02;;
22660;SDS011;11497;52.222;21.246;2024-03-08T09:25:21;28.83;;;17.73;;
22660;SDS011;11497;52.222;21.246;2024-03-08T09:27:49;35.35;;;20.60;;
22660;SDS011;11497;52.222;21.246;2024-03-08T09:30:17;36.97;;;21.77;;
22660;SDS011;11497;52.222;21.246;2024-03-08T09:32:47;37.70;;;21.70;;
22660;SDS011;11497;52.222;21.246;2024-03-08T09:35:16;30.48;;;19.38;;
22660;SDS011;11497;52.222;21.246;2024-03-08T09:37:44;29.55;;;19.08;;
22660;SDS011;11497;52.222;21.246;2024-03-08T09:40:14;31.98;;;18.30;;
22660;SDS011;11497;52.222;21.246;2024-03-08T09:42:43;29.75;;;18.00;;
22660;SDS011;11497;52.222;21.246;2024-03-08T09:45:13;29.50;;;18.75;;
22660;SDS011;11497;52.222;21.246;2024-03-08T09:47:43;28.02;;;17.88;;
22660;SDS011;11497;52.222;21.246;2024-03-08T09:50:11;32.40;;;19.75;;
22660;SDS011;11497;52.222;21.246;2024-03-08T09:52:40;30.67;;;19.83;;
22660;SDS011;11497;52.222;21.246;2024-03-08T09:55:10;29.80;;;18.05;;
22660;SDS011;11497;52.222;21.246;2024-03-08T09:57:41;26.13;;;18.02;;
22660;SDS011;11497;52.222;21.246;2024-03-08T10:00:30;23.92;;;15.50;;
22660;SDS011;11497;52.222;21.246;2024-03-08T10:03:01;27.10;;;15.95;;
22660;SDS011;11497;52.222;21.246;2024-03-08T10:05:30;26.58;;;17.00;;
22660;SDS011;11497;52.222;21.246;2024-03-08T10:08:01;27.70;;;18.23;;
22660;SDS011;11497;52.222;21.246;2024-03-08T10:10:29;28.67;;;16.58;;
22660;SDS011;11497;52.222;21.246;2024-03-08T10:12:57;26.02;;;15.77;;
22660;SDS011;11497;52.222;21.246;2024-03-08T10:15:27;28.40;;;17.92;;
22660;SDS011;11497;52.222;21.246;2024-03-08T10:17:56;30.40;;;17.70;;
22660;SDS011;11497;52.222;21.246;2024-03-08T10:20:24;26.38;;;17.15;;
22660;SDS011;11497;52.222;21.246;2024-03-08T10:22:55;29.35;;;17.95;;
22660;SDS011;11497;52.222;21.246;2024-03-08T10:25:36;25.83;;;16.55;;
22660;SDS011;11497;52.222;21.246;2024-03-08T10:28:05;27.33;;;16.55;;
22660;SDS011;11497;52.222;21.246;2024-03-08T10:30:33;26.42;;;16.55;;
22660;SDS011;11497;52.222;21.246;2024-03-08T10:33:01;24.98;;;16.65;;
22660;SDS011;11497;52.222;21.246;2024-03-08T10:35:32;29.58;;;16.95;;
22660;SDS011;11497;52.222;21.246;2024-03-08T10:38:00;31.70;;;18.83;;
22660;SDS011;11497;52.222;21.246;2024-03-08T10:40:34;28.83;;;17.35;;
22660;SDS011;11497;52.222;21.246;2024-03-08T10:43:06;25.83;;;16.85;;
22660;SDS011;11497;52.222;21.246;2024-03-08T10:45:43;25.48;;;16.55;;
22660;SDS011;11497;52.222;21.246;2024-03-08T10:51:05;29.48;;;16.65;;
22660;SDS011;11497;52.222;21.246;2024-03-08T10:53:34;30.08;;;15.38;;
22660;SDS011;11497;52.222;21.246;2024-03-08T10:56:08;32.13;;;18.90;;
22660;SDS011;11497;52.222;21.246;2024-03-08T10:58:37;27.27;;;15.40;;
22660;SDS011;11497;52.222;21.246;2024-03-08T11:01:05;26.95;;;16.23;;
22660;SDS011;11497;52.222;21.246;2024-03-08T11:06:31;29.42;;;16.33;;
22660;SDS011;11497;52.222;21.246;2024-03-08T11:09:11;24.58;;;14.63;;
22660;SDS011;11497;52.222;21.246;2024-03-08T11:15:11;24.10;;;14.52;;
22660;SDS011;11497;52.222;21.246;2024-03-08T11:17:49;24.92;;;14.45;;
22660;SDS011;11497;52.222;21.246;2024-03-08T11:20:18;21.85;;;13.40;;
22660;SDS011;11497;52.222;21.246;2024-03-08T11:22:54;24.13;;;13.55;;
22660;SDS011;11497;52.222;21.246;2024-03-08T11:28:23;26.15;;;14.45;;
22660;SDS011;11497;52.222;21.246;2024-03-08T11:33:28;24.67;;;13.60;;
22660;SDS011;11497;52.222;21.246;2024-03-08T11:38:41;25.67;;;14.23;;
22660;SDS011;11497;52.222;21.246;2024-03-08T11:41:19;25.73;;;13.80;;
22660;SDS011;11497;52.222;21.246;2024-03-08T11:44:01;24.98;;;14.10;;
22660;SDS011;11497;52.222;21.246;2024-03-08T11:46:34;26.70;;;13.77;;
22660;SDS011;11497;52.222;21.246;2024-03-08T11:49:02;26.13;;;14.38;;
22660;SDS011;11497;52.222;21.246;2024-03-08T11:51:30;23.40;;;13.80;;
22660;SDS011;11497;52.222;21.246;2024-03-08T11:53:59;26.13;;;14.25;;
22660;SDS011;11497;52.222;21.246;2024-03-08T11:56:27;30.25;;;13.40;;
22660;SDS011;11497;52.222;21.246;2024-03-08T11:58:56;21.77;;;13.27;;
22660;SDS011;11497;52.222;21.246;2024-03-08T12:01:25;24.70;;;13.60;;
22660;SDS011;11497;52.222;21.246;2024-03-08T12:03:56;24.23;;;12.90;;
22660;SDS011;11497;52.222;21.246;2024-03-08T12:06:36;22.67;;;13.25;;
22660;SDS011;11497;52.222;21.246;2024-03-08T12:09:11;23.83;;;12.30;;
22660;SDS011;11497;52.222;21.246;2024-03-08T12:11:40;26.00;;;13.45;;
22660;SDS011;11497;52.222;21.246;2024-03-08T12:14:09;22.90;;;13.30;;
22660;SDS011;11497;52.222;21.246;2024-03-08T12:16:37;27.98;;;13.38;;
22660;SDS011;11497;52.222;21.246;2024-03-08T12:19:05;24.98;;;13.82;;
22660;SDS011;11497;52.222;21.246;2024-03-08T12:21:33;26.05;;;12.90;;
22660;SDS011;11497;52.222;21.246;2024-03-08T12:24:03;24.05;;;12.82;;
22660;SDS011;11497;52.222;21.246;2024-03-08T12:26:36;24.13;;;13.27;;
22660;SDS011;11497;52.222;21.246;2024-03-08T12:29:15;24.58;;;12.93;;
22660;SDS011;11497;52.222;21.246;2024-03-08T12:31:50;24.90;;;13.45;;
22660;SDS011;11497;52.222;21.246;2024-03-08T12:34:20;21.77;;;13.52;;
22660;SDS011;11497;52.222;21.246;2024-03-08T12:36:49;22.52;;;11.95;;
22660;SDS011;11497;52.222;21.246;2024-03-08T12:39:22;21.73;;;12.50;;
22660;SDS011;11497;52.222;21.246;2024-03-08T12:41:54;23.25;;;12.93;;
22660;SDS011;11497;52.222;21.246;2024-03-08T12:44:29;22.35;;;12.63;;
22660;SDS011;11497;52.222;21.246;2024-03-08T12:46:57;24.70;;;13.10;;
22660;SDS011;11497;52.222;21.246;2024-03-08T12:49:26;20.42;;;11.95;;
22660;SDS011;11497;52.222;21.246;2024-03-08T12:51:54;23.77;;;13.85;;
22660;SDS011;11497;52.222;21.246;2024-03-08T12:54:22;26.80;;;12.60;;
22660;SDS011;11497;52.222;21.246;2024-03-08T12:56:51;21.17;;;12.10;;
22660;SDS011;11497;52.222;21.246;2024-03-08T12:59:21;23.50;;;12.60;;
22660;SDS011;11497;52.222;21.246;2024-03-08T13:01:51;22.08;;;11.88;;
22660;SDS011;11497;52.222;21.246;2024-03-08T13:04:20;22.25;;;12.43;;
22660;SDS011;11497;52.222;21.246;2024-03-08T13:06:49;26.77;;;12.88;;
22660;SDS011;11497;52.222;21.246;2024-03-08T13:09:21;20.30;;;12.15;;
22660;SDS011;11497;52.222;21.246;2024-03-08T13:11:49;23.92;;;13.35;;
22660;SDS011;11497;52.222;21.246;2024-03-08T13:14:20;22.02;;;12.30;;
22660;SDS011;11497;52.222;21.246;2024-03-08T13:16:48;21.70;;;12.60;;
22660;SDS011;11497;52.222;21.246;2024-03-08T13:19:18;21.40;;;11.98;;
22660;SDS011;11497;52.222;21.246;2024-03-08T13:21:48;22.88;;;12.55;;
22660;SDS011;11497;52.222;21.246;2024-03-08T13:24:16;23.02;;;13.27;;
22660;SDS011;11497;52.222;21.246;2024-03-08T13:26:46;23.45;;;12.48;;
22660;SDS011;11497;52.222;21.246;2024-03-08T13:29:14;23.45;;;13.02;;
22660;SDS011;11497;52.222;21.246;2024-03-08T13:31:43;20.98;;;11.95;;
22660;SDS011;11497;52.222;21.246;2024-03-08T13:34:10;21.65;;;11.88;;
22660;SDS011;11497;52.222;21.246;2024-03-08T13:36:38;21.38;;;11.60;;
22660;SDS011;11497;52.222;21.246;2024-03-08T13:39:11;22.48;;;11.63;;
22660;SDS011;11497;52.222;21.246;2024-03-08T13:41:42;19.83;;;11.68;;
22660;SDS011;11497;52.222;21.246;2024-03-08T13:44:11;26.02;;;13.45;;
22660;SDS011;11497;52.222;21.246;2024-03-08T13:46:40;23.00;;;12.73;;
22660;SDS011;11497;52.222;21.246;2024-03-08T13:49:08;23.33;;;13.23;;
22660;SDS011;11497;52.222;21.246;2024-03-08T13:51:38;26.30;;;14.07;;
22660;SDS011;11497;52.222;21.246;2024-03-08T13:54:06;28.40;;;13.07;;
22660;SDS011;11497;52.222;21.246;2024-03-08T13:56:34;25.80;;;13.10;;
22660;SDS011;11497;52.222;21.246;2024-03-08T13:59:01;22.83;;;12.77;;
22660;SDS011;11497;52.222;21.246;2024-03-08T14:01:30;21.55;;;11.95;;
22660;SDS011;11497;52.222;21.246;2024-03-08T14:03:58;20.25;;;11.88;;
22660;SDS011;11497;52.222;21.246;2024-03-08T14:06:26;20.90;;;12.38;;
22660;SDS011;11497;52.222;21.246;2024-03-08T14:08:54;22.52;;;11.65;;
22660;SDS011;11497;52.222;21.246;2024-03-08T14:11:24;20.52;;;12.18;;
22660;SDS011;11497;52.222;21.246;2024-03-08T14:13:52;22.63;;;12.52;;
22660;SDS011;11497;52.222;21.246;2024-03-08T14:16:21;23.98;;;13.25;;
22660;SDS011;11497;52.222;21.246;2024-03-08T14:18:49;26.33;;;13.43;;
22660;SDS011;11497;52.222;21.246;2024-03-08T14:21:17;23.55;;;13.60;;
22660;SDS011;11497;52.222;21.246;2024-03-08T14:23:45;23.67;;;12.93;;
22660;SDS011;11497;52.222;21.246;2024-03-08T14:26:15;25.45;;;13.65;;
22660;SDS011;11497;52.222;21.246;2024-03-08T14:28:43;25.10;;;12.80;;